Time;durP1;ratioP1;P1;durP2;ratioP2;P2;SDS_P1;SDS_P2;PMS_P1;PMS_P2;Temp;Humidity;BMP_temperature;BMP_pressure;BME280_temperature;BME280_humidity;BME280_pressure;Samples;Min_cycle;Max_cycle;Signal;HPM_P1;HPM_P2
2022/11/26 00:05:02;;;;;;;126.57;39.90;;;;;;;2.64;100.00;101321.69;5072916;56;1143043;-65
2022/11/26 00:10:30;;;;;;;135.40;43.17;;;;;;;2.62;100.00;101311.73;5035188;55;1143259;-67
2022/11/26 00:15:36;;;;;;;100.25;38.02;;;;;;;2.57;100.00;101316.72;5035033;55;1143068;-68
2022/11/26 00:20:43;;;;;;;93.80;32.83;;;;;;;2.57;100.00;101312.36;5148549;55;1143047;-66
2022/11/26 00:25:55;;;;;;;118.67;41.03;;;;;;;2.57;100.00;101312.36;5206607;55;1140899;-65
2022/11/26 00:31:14;;;;;;;99.17;38.38;;;;;;;2.56;100.00;101315.87;5098488;56;1145054;-64
2022/11/26 00:36:27;;;;;;;107.70;35.50;;;;;;;2.57;100.00;101327.17;5030093;57;1140987;-66
2022/11/26 00:41:38;;;;;;;93.35;33.05;;;;;;;2.53;100.00;101333.38;5036278;56;1143170;-66
2022/11/26 00:46:44;;;;;;;85.50;33.90;;;;;;;2.51;100.00;101332.12;5020969;56;1141209;-68
2022/11/26 00:51:50;;;;;;;96.37;36.30;;;;;;;2.47;100.00;101331.35;5061909;56;1141052;-66
2022/11/26 00:56:56;;;;;;;87.47;34.07;;;;;;;2.47;100.00;101336.58;5061711;55;1141041;-66
2022/11/26 01:02:01;;;;;;;116.67;36.70;;;;;;;2.52;100.00;101346.03;5061521;56;1142924;-67
2022/11/26 01:07:11;;;;;;;116.47;35.63;;;;;;;2.54;100.00;101349.45;5104208;56;1143102;-69
2022/11/26 01:12:16;;;;;;;107.60;34.50;;;;;;;2.51;100.00;101349.55;5084191;56;1142915;-65
2022/11/26 01:17:24;;;;;;;110.97;36.33;;;;;;;2.53;100.00;101351.66;5121557;56;1143116;-69
2022/11/26 01:22:29;;;;;;;112.57;37.17;;;;;;;2.58;100.00;101355.84;5165731;55;1145307;-68
2022/11/26 01:27:35;;;;;;;91.63;32.07;;;;;;;2.59;100.00;101360.62;5177149;55;1143245;-64
2022/11/26 01:32:41;;;;;;;95.42;35.23;;;;;;;2.56;100.00;101365.48;5177493;56;1140873;-68
2022/11/26 01:37:47;;;;;;;89.35;31.68;;;;;;;2.57;100.00;101368.95;5125695;55;1140868;-66
2022/11/26 01:42:57;;;;;;;104.77;35.27;;;;;;;2.55;100.00;101375.97;5054413;56;1142925;-64
2022/11/26 01:48:21;;;;;;;89.50;28.83;;;;;;;2.47;100.00;101377.49;5037636;56;1142936;-66
2022/11/26 01:53:34;;;;;;;115.12;35.85;;;;;;;2.41;100.00;101390.30;5033876;55;1140910;-67
2022/11/26 01:58:49;;;;;;;97.80;36.80;;;;;;;2.37;100.00;101378.23;5037740;55;1142914;-65
2022/11/26 02:04:06;;;;;;;119.30;37.23;;;;;;;2.37;100.00;101378.23;5010314;56;1198973;-65
2022/11/26 02:09:13;;;;;;;129.57;36.60;;;;;;;2.40;100.00;101383.38;5033740;56;1143069;-67
2022/11/26 02:14:29;;;;;;;115.93;35.87;;;;;;;2.39;100.00;101389.49;5111345;55;1186758;-65
2022/11/26 02:20:05;;;;;;;114.40;36.70;;;;;;;2.41;100.00;101387.69;5121277;56;1148788;-64
2022/11/26 02:25:34;;;;;;;107.63;35.43;;;;;;;2.41;100.00;101392.06;5161787;55;1143054;-67
2022/11/26 02:30:53;;;;;;;98.03;35.17;;;;;;;2.42;100.00;101394.62;5176231;55;1143008;-66
2022/11/26 02:36:06;;;;;;;110.87;35.50;;;;;;;2.42;100.00;101395.08;5112853;55;1141384;-66
2022/11/26 02:41:11;;;;;;;;;;;;;;;2.34;100.00;101404.88;5062766;56;1142960;-64
2022/11/26 02:46:19;;;;;;;101.43;36.33;;;;;;;2.31;100.00;101401.89;5068017;56;974037;-67
2022/11/26 02:51:27;;;;;;;102.83;35.13;;;;;;;2.31;100.00;101399.73;5077119;56;1143096;-67
2022/11/26 02:56:33;;;;;;;159.20;45.00;;;;;;;2.33;100.00;101395.33;5052537;56;1143021;-68
2022/11/26 03:01:53;;;;;;;108.73;37.20;;;;;;;2.28;100.00;101389.41;5065069;56;1143126;-68
2022/11/26 03:07:03;;;;;;;96.43;35.40;;;;;;;2.30;100.00;101387.13;5156671;55;1143200;-67
2022/11/26 03:12:09;;;;;;;93.53;34.47;;;;;;;2.27;100.00;101403.36;5091042;56;1140862;-68
2022/11/26 03:17:15;;;;;;;121.57;37.43;;;;;;;2.27;100.00;101399.00;5090857;56;1141025;-67
2022/11/26 03:22:21;;;;;;;104.97;34.43;;;;;;;2.24;100.00;101414.73;5090828;56;1143021;-66
2022/11/26 03:27:26;;;;;;;106.83;35.80;;;;;;;2.23;100.00;101426.52;5090809;57;1143098;-68
2022/11/26 03:32:32;;;;;;;88.93;34.83;;;;;;;2.20;100.00;101426.61;5127729;56;1145122;-66
2022/11/26 03:37:38;;;;;;;91.90;33.77;;;;;;;2.26;100.00;101425.99;5104159;55;1143144;-64
2022/11/26 03:42:44;;;;;;;99.87;32.38;;;;;;;2.31;100.00;101431.91;5128791;55;1140812;-65
2022/11/26 03:47:50;;;;;;;94.28;35.28;;;;;;;2.28;100.00;101435.94;5103778;56;1140975;-65
2022/11/26 03:52:56;;;;;;;77.63;28.80;;;;;;;2.22;100.00;101455.68;5091076;56;1140943;-65
2022/11/26 03:58:01;;;;;;;79.53;30.43;;;;;;;2.23;100.00;101452.17;5090991;56;1140886;-66
2022/11/26 04:03:07;;;;;;;76.93;30.17;;;;;;;2.26;100.00;101454.70;5101866;56;1143023;-67
2022/11/26 04:08:14;;;;;;;96.47;34.53;;;;;;;2.26;100.00;101458.62;5176686;56;1140970;-69
2022/11/26 04:13:20;;;;;;;75.55;28.20;;;;;;;2.24;100.00;101463.47;5176497;56;1141174;-67
2022/11/26 04:18:26;;;;;;;86.50;30.50;;;;;;;2.20;100.00;101470.52;5164138;56;1140994;-66
2022/11/26 04:23:34;;;;;;;91.20;31.03;;;;;;;2.13;100.00;101474.22;5132985;55;1140855;-66
2022/11/26 04:28:39;;;;;;;96.80;33.30;;;;;;;2.11;100.00;101482.08;5098417;56;1140850;-65
2022/11/26 04:33:45;;;;;;;90.90;30.35;;;;;;;2.11;100.00;101481.23;5116947;56;1140998;-66
2022/11/26 04:38:51;;;;;;;92.37;33.02;;;;;;;2.14;100.00;101490.73;5137811;55;1141017;-66
2022/11/26 04:43:56;;;;;;;78.57;27.87;;;;;;;2.16;100.00;101484.55;5095018;55;1140873;-67
2022/11/26 04:49:02;;;;;;;84.10;30.20;;;;;;;2.13;100.00;101487.71;5030757;57;1141070;-67
2022/11/26 04:54:07;;;;;;;78.20;29.20;;;;;;;2.12;100.00;101490.77;5030582;57;1140935;-66
2022/11/26 04:59:13;;;;;;;83.03;30.83;;;;;;;2.17;100.00;101502.36;5090178;56;1140762;-63
2022/11/26 05:04:19;;;;;;;89.43;33.27;;;;;;;2.15;100.00;101502.41;5082856;55;1140983;-67
2022/11/26 05:09:25;;;;;;;80.27;30.37;;;;;;;2.16;100.00;101517.16;5127993;55;1141079;-65
2022/11/26 05:14:32;;;;;;;94.23;33.00;;;;;;;2.13;100.00;101512.50;5119133;56;1140748;-67
2022/11/26 05:19:38;;;;;;;92.43;33.57;;;;;;;2.13;100.00;101535.54;5110036;56;1140876;-65
2022/11/26 05:24:44;;;;;;;87.57;33.63;;;;;;;2.10;100.00;101547.36;5069676;55;1140977;-63
2022/11/26 05:29:49;;;;;;;97.73;36.73;;;;;;;2.15;100.00;101555.90;5109636;55;1143097;-64
2022/11/26 05:34:55;;;;;;;90.17;33.60;;;;;;;2.20;100.00;101567.53;4990628;56;1140817;-63
2022/11/26 05:40:00;;;;;;;90.75;33.88;;;;;;;2.15;100.00;101574.61;5201938;55;1140984;-64
2022/11/26 05:45:08;;;;;;;81.13;33.80;;;;;;;2.14;100.00;101576.36;5205812;55;1140878;-65
2022/11/26 05:50:14;;;;;;;81.23;30.97;;;;;;;2.11;100.00;101579.08;5205974;55;1140799;-67
2022/11/26 05:55:20;;;;;;;83.63;32.50;;;;;;;2.15;100.00;101583.75;5188367;55;1140995;-67
2022/11/26 06:00:26;;;;;;;87.37;32.00;;;;;;;2.19;100.00;101584.94;4982681;57;1140918;-67
2022/11/26 06:05:32;;;;;;;83.43;33.27;;;;;;;2.23;100.00;101594.41;5038233;55;1141258;-65
2022/11/26 06:10:37;;;;;;;75.67;30.93;;;;;;;2.22;100.00;101594.45;5124959;55;1140966;-66
2022/11/26 06:15:43;;;;;;;105.37;36.13;;;;;;;2.16;100.00;101605.89;5128584;55;1140897;-66
2022/11/26 06:20:49;;;;;;;119.07;37.43;;;;;;;2.10;100.00;101621.28;5126874;55;1143101;-65
2022/11/26 06:25:55;;;;;;;107.97;38.35;;;;;;;2.06;100.00;101615.72;5175502;55;1143236;-65
2022/11/26 06:31:01;;;;;;;133.83;46.53;;;;;;;2.06;100.00;101623.99;5122939;55;1145007;-64
2022/11/26 06:36:06;;;;;;;104.50;36.07;;;;;;;2.04;100.00;101632.30;4922582;57;1143197;-67
2022/11/26 06:41:12;;;;;;;98.17;36.77;;;;;;;1.95;100.00;101628.62;4827504;58;1143137;-64
2022/11/26 06:46:18;;;;;;;105.30;37.70;;;;;;;1.88;100.00;101634.87;4821252;58;1141191;-64
2022/11/26 06:51:26;;;;;;;98.63;39.80;;;;;;;1.94;100.00;101637.34;4824796;58;1143381;-65
2022/11/26 06:56:34;;;;;;;100.40;38.33;;;;;;;1.96;100.00;101645.99;5027694;56;1140971;-65
2022/11/26 07:01:39;;;;;;;93.87;33.70;;;;;;;1.95;100.00;101660.78;5029598;57;1146411;-64
2022/11/26 07:06:46;;;;;;;99.90;34.20;;;;;;;1.92;100.00;101656.94;5059891;56;1144686;-65
2022/11/26 07:11:52;;;;;;;113.65;38.92;;;;;;;1.84;100.00;101672.34;5050638;56;1141020;-63
2022/11/26 07:16:58;;;;;;;106.40;40.33;;;;;;;1.78;100.00;101694.23;5029835;56;1143271;-67
2022/11/26 07:22:04;;;;;;;86.70;35.33;;;;;;;1.79;100.00;101686.81;5109108;56;1143015;-65
2022/11/26 07:27:09;;;;;;;86.17;36.27;;;;;;;1.80;100.00;101704.63;5039389;56;1141021;-63
2022/11/26 07:32:15;;;;;;;92.13;36.83;;;;;;;1.81;100.00;101688.09;4950671;58;1140835;-66
2022/11/26 07:37:21;;;;;;;92.53;34.90;;;;;;;1.80;100.00;101698.97;5039943;56;1140998;-64
2022/11/26 07:42:32;;;;;;;88.53;35.83;;;;;;;1.83;100.00;101694.98;4948289;57;1140912;-65
2022/11/26 07:47:38;;;;;;;88.00;39.08;;;;;;;1.84;100.00;101694.52;4955171;57;1141150;-66
2022/11/26 07:52:43;;;;;;;87.70;36.15;;;;;;;1.79;100.00;101688.13;5101026;55;1140919;-66
2022/11/26 07:57:49;;;;;;;102.87;38.73;;;;;;;1.78;100.00;101708.57;5031641;56;1141118;-64
2022/11/26 08:02:55;;;;;;;94.10;35.47;;;;;;;1.81;100.00;101713.72;5023598;57;1142925;-67
2022/11/26 08:08:01;;;;;;;96.23;36.23;;;;;;;1.85;100.00;101710.13;5002482;57;1141034;-66
2022/11/26 08:13:06;;;;;;;95.57;36.10;;;;;;;1.85;100.00;101719.26;5068490;56;1140899;-65
2022/11/26 08:18:12;;;;;;;99.63;36.93;;;;;;;1.86;100.00;101735.77;4965218;57;1141015;-63
2022/11/26 08:23:18;;;;;;;96.43;35.13;;;;;;;1.71;100.00;101735.22;5032135;57;1141130;-67
2022/11/26 08:28:24;;;;;;;96.43;36.93;;;;;;;1.64;100.00;101754.95;4954125;57;1141115;-64
2022/11/26 08:33:29;;;;;;;100.80;39.57;;;;;;;1.61;100.00;101781.95;4994218;57;1141154;-65
2022/11/26 08:38:35;;;;;;;101.90;39.50;;;;;;;1.55;100.00;101790.33;5003741;57;1143123;-66
2022/11/26 08:43:41;;;;;;;95.90;35.80;;;;;;;1.48;100.00;101780.48;5115874;56;1143416;-66
2022/11/26 08:48:47;;;;;;;96.37;35.70;;;;;;;1.58;100.00;101795.04;4950520;57;1141086;-62
2022/11/26 08:53:52;;;;;;;106.87;41.00;;;;;;;1.76;100.00;101784.68;5031951;57;1140943;-63
2022/11/26 08:58:58;;;;;;;101.18;39.95;;;;;;;1.90;100.00;101784.38;5031777;56;1143337;-64
2022/11/26 09:04:05;;;;;;;97.47;39.23;;;;;;;2.03;100.00;101801.48;5060482;56;1143212;-66
2022/11/26 09:09:13;;;;;;;104.43;39.27;;;;;;;2.07;100.00;101797.92;5031021;56;1141165;-65
2022/11/26 09:14:23;;;;;;;90.70;37.57;;;;;;;2.07;100.00;101797.92;5051754;56;1142917;-67
2022/11/26 09:19:29;;;;;;;88.83;33.57;;;;;;;2.18;100.00;101807.67;5068720;56;1140791;-64
2022/11/26 09:24:35;;;;;;;84.27;34.60;;;;;;;2.12;100.00;101809.13;5103718;56;1140916;-63
2022/11/26 09:29:41;;;;;;;87.07;37.40;;;;;;;2.12;100.00;101815.66;5098732;56;1143120;-64
2022/11/26 09:34:47;;;;;;;88.50;36.65;;;;;;;2.17;100.00;101819.00;5074126;56;1141095;-64
2022/11/26 09:39:54;;;;;;;96.02;40.75;;;;;;;2.28;100.00;101821.39;5068480;55;1140914;-66
2022/11/26 09:45:25;;;;;;;99.93;39.07;;;;;;;2.31;100.00;101817.38;4997341;58;1140920;-65
2022/11/26 09:50:35;;;;;;;94.00;37.93;;;;;;;2.31;100.00;101818.24;4866045;59;1141026;-63
2022/11/26 09:55:44;;;;;;;87.33;35.10;;;;;;;2.36;100.00;101815.53;4830074;58;1140930;-65
2022/11/26 10:00:56;;;;;;;87.67;36.75;;;;;;;2.36;100.00;101816.39;4909227;58;1140957;-67
2022/11/26 10:06:26;;;;;;;107.60;41.68;;;;;;;2.34;100.00;101816.87;4837150;58;1140886;-69
2022/11/26 10:12:26;;;;;;;84.13;33.27;;;;;;;2.35;100.00;101829.48;4884322;58;1142977;-68
2022/11/26 10:17:52;;;;;;;89.40;34.67;;;;;;;2.38;100.00;101826.80;4930382;58;1141349;-66
2022/11/26 10:23:14;;;;;;;95.13;36.93;;;;;;;2.43;100.00;101836.70;4882208;58;1141077;-68
2022/11/26 10:28:39;;;;;;;95.77;41.33;;;;;;;2.46;100.00;101836.16;4933739;56;1140998;-67
2022/11/26 10:34:04;;;;;;;98.23;43.30;;;;;;;2.57;100.00;101837.69;5100857;56;1140967;-66
2022/11/26 10:39:16;;;;;;;105.47;41.57;;;;;;;2.64;100.00;101845.33;5123910;56;1140872;-63
2022/11/26 10:44:40;;;;;;;102.43;41.20;;;;;;;2.67;100.00;101838.73;5093646;55;1143163;-67
2022/11/26 10:49:46;;;;;;;257.04;114.02;;;;;;;2.74;100.00;101829.87;5150158;55;1142848;-65
2022/11/26 10:55:11;;;;;;;133.53;57.83;;;;;;;2.90;100.00;101836.88;5147957;55;1145077;-68
2022/11/26 11:00:36;;;;;;;91.23;38.13;;;;;;;3.05;100.00;101831.72;5108947;56;1142827;-64
2022/11/26 11:05:44;;;;;;;93.33;41.10;;;;;;;3.10;100.00;101833.74;5101123;56;1140782;-67
2022/11/26 11:11:00;;;;;;;86.32;40.78;;;;;;;3.15;100.00;101840.58;5120895;56;1140879;-64
2022/11/26 11:16:06;;;;;;;74.40;33.07;;;;;;;3.20;100.00;101850.93;5120628;56;1140922;-65
2022/11/26 11:21:15;;;;;;;81.20;33.93;;;;;;;3.20;100.00;101843.09;5113128;55;1141012;-66
2022/11/26 11:26:24;;;;;;;79.80;33.40;;;;;;;3.34;100.00;101847.95;5120375;56;1140985;-64
2022/11/26 11:31:33;;;;;;;80.00;40.83;;;;;;;3.49;100.00;101843.61;5108038;56;1141065;-66
2022/11/26 11:36:40;;;;;;;89.73;36.33;;;;;;;3.60;100.00;101850.71;5053287;56;1140859;-68
2022/11/26 11:41:49;;;;;;;88.50;36.42;;;;;;;3.66;100.00;101857.55;5042681;55;1140938;-66
2022/11/26 11:47:26;;;;;;;85.90;34.67;;;;;;;3.64;100.00;101876.34;5049474;55;1141085;-65
2022/11/26 11:52:48;;;;;;;77.20;30.77;;;;;;;3.62;100.00;101875.08;5057216;56;1140830;-64
2022/11/26 11:58:01;;;;;;;66.53;30.60;;;;;;;3.56;100.00;101879.16;5057387;56;1141043;-65
2022/11/26 12:03:18;;;;;;;;;;;;;;;3.58;100.00;101881.73;5074387;55;1140862;-66
2022/11/26 12:08:54;;;;;;;74.83;31.30;;;;;;;3.61;100.00;101882.96;5162239;55;974145;-66
2022/11/26 12:14:21;;;;;;;88.45;38.98;;;;;;;3.58;100.00;101888.27;5142389;55;1139174;-65
2022/11/26 12:19:40;;;;;;;90.10;40.20;;;;;;;3.53;100.00;101891.00;5081405;55;1140914;-64
2022/11/26 12:25:08;;;;;;;82.07;36.30;;;;;;;3.44;100.00;101897.79;5134552;55;1141072;-66
2022/11/26 12:30:18;;;;;;;85.63;36.87;;;;;;;3.42;100.00;101900.89;4979924;56;1141014;-67
2022/11/26 12:35:34;;;;;;;78.23;36.73;;;;;;;3.40;100.00;101894.84;4978823;57;1140942;-68
2022/11/26 12:40:50;;;;;;;84.27;35.30;;;;;;;3.36;100.00;101894.05;4926329;59;1141023;-67
2022/11/26 12:46:02;;;;;;;95.90;38.70;;;;;;;3.32;100.00;101887.20;4926183;58;1140984;-65
2022/11/26 12:51:40;;;;;;;78.20;32.05;;;;;;;3.25;100.00;101886.94;4925823;58;1140971;-65
2022/11/26 12:57:23;;;;;;;78.40;30.45;;;;;;;3.26;100.00;101893.03;4932466;58;1151908;-66
2022/11/26 13:02:32;;;;;;;78.00;34.10;;;;;;;3.30;100.00;101904.69;4832537;58;1141134;-67
2022/11/26 13:08:04;;;;;;;80.50;35.20;;;;;;;3.39;100.00;101907.50;5017025;57;1141042;-66
2022/11/26 13:13:37;;;;;;;84.00;35.38;;;;;;;3.41;100.00;101907.87;5005218;56;1140926;-66
2022/11/26 13:18:55;;;;;;;101.07;41.53;;;;;;;3.42;100.00;101907.43;5089720;56;1141030;-67
2022/11/26 13:24:32;;;;;;;83.20;37.78;;;;;;;3.42;100.00;101903.51;5073976;56;1143135;-66
2022/11/26 13:29:48;;;;;;;70.60;30.67;;;;;;;3.40;100.00;101907.47;5059769;55;1140869;-68
2022/11/26 13:35:13;;;;;;;107.73;50.13;;;;;;;3.39;100.00;101907.05;5129282;55;1143076;-69
2022/11/26 13:40:43;;;;;;;76.53;35.40;;;;;;;3.45;100.00;101913.89;5145739;55;1142870;-67
2022/11/26 13:46:24;;;;;;;85.72;37.53;;;;;;;3.43;100.00;101917.86;5134710;55;1140957;-65
2022/11/26 13:51:55;;;;;;;100.67;43.90;;;;;;;3.38;100.00;101918.41;5208305;54;1140977;-67
2022/11/26 13:57:19;;;;;;;77.12;33.33;;;;;;;3.40;100.00;101932.75;5208745;55;1143029;-66
2022/11/26 14:02:41;;;;;;;90.33;38.33;;;;;;;3.42;100.00;101939.67;5144135;55;1140847;-66
2022/11/26 14:07:46;;;;;;;92.73;43.30;;;;;;;3.49;100.00;101937.77;5125115;55;1141021;-67
2022/11/26 14:13:10;;;;;;;123.40;52.47;;;;;;;3.42;100.00;101938.81;5125795;55;1141140;-65
2022/11/26 14:18:18;;;;;;;86.63;40.52;;;;;;;3.35;100.00;101942.50;5147373;55;1143034;-64
2022/11/26 14:23:50;;;;;;;157.33;66.70;;;;;;;3.32;100.00;101946.48;5134630;55;1140920;-64
2022/11/26 14:29:12;;;;;;;399.80;159.03;;;;;;;3.39;100.00;101944.11;5155949;55;1143019;-67
2022/11/26 14:34:47;;;;;;;176.47;78.20;;;;;;;3.45;100.00;101934.81;5130941;55;1145079;-67
2022/11/26 14:40:09;;;;;;;97.17;41.50;;;;;;;3.50;100.00;101940.80;5051884;56;1143264;-67
2022/11/26 14:45:21;;;;;;;91.23;39.00;;;;;;;3.44;100.00;101946.17;5035889;56;1140820;-62
2022/11/26 14:50:26;;;;;;;88.40;38.20;;;;;;;3.38;100.00;101952.85;5037421;56;1140889;-68
2022/11/26 14:55:33;;;;;;;105.63;44.97;;;;;;;3.35;100.00;101972.12;5037282;56;1140909;-63
2022/11/26 15:00:39;;;;;;;93.87;40.30;;;;;;;3.31;100.00;101960.01;5051959;56;1143052;-66
2022/11/26 15:05:44;;;;;;;123.93;48.53;;;;;;;3.32;100.00;101985.70;5114287;56;1140941;-67
2022/11/26 15:11:05;;;;;;;98.83;44.23;;;;;;;3.29;100.00;101985.33;5110787;56;1142934;-66
2022/11/26 15:16:32;;;;;;;78.57;33.80;;;;;;;3.26;100.00;101987.16;5120627;56;1140919;-64
2022/11/26 15:21:39;;;;;;;413.60;183.17;;;;;;;3.23;100.00;101988.52;5173641;55;1140869;-63
2022/11/26 15:26:48;;;;;;;147.32;66.92;;;;;;;3.20;100.00;101989.93;5040373;56;1145160;-66
2022/11/26 15:31:53;;;;;;;163.18;84.15;;;;;;;3.12;100.00;101985.73;5072160;56;1142921;-65
2022/11/26 15:37:00;;;;;;;162.43;73.90;;;;;;;3.06;100.00;101992.39;5142722;55;1142913;-67
2022/11/26 15:42:10;;;;;;;84.47;38.23;;;;;;;3.07;100.00;101998.03;5090637;57;1143112;-66
2022/11/26 15:47:25;;;;;;;72.70;32.47;;;;;;;3.08;100.00;101998.89;5088179;56;1141012;-66
2022/11/26 15:52:34;;;;;;;78.97;33.67;;;;;;;3.04;100.00;102006.41;5097694;56;1140917;-65
2022/11/26 15:57:42;;;;;;;65.90;27.60;;;;;;;2.96;100.00;102009.63;5165976;55;1141077;-65
2022/11/26 16:02:48;;;;;;;91.37;40.28;;;;;;;2.94;100.00;102000.52;5095760;55;1141081;-63
2022/11/26 16:08:04;;;;;;;76.57;31.97;;;;;;;2.95;100.00;101994.84;5033539;57;1141362;-67
2022/11/26 16:13:18;;;;;;;75.97;31.90;;;;;;;2.93;100.00;102000.55;5087803;56;1141123;-64
2022/11/26 16:18:37;;;;;;;96.50;43.43;;;;;;;2.89;100.00;101998.47;5119672;55;1141081;-64
2022/11/26 16:23:43;;;;;;;138.60;56.47;;;;;;;2.94;100.00;102012.72;5196731;55;1141143;-62
2022/11/26 16:28:49;;;;;;;108.53;43.73;;;;;;;3.04;100.00;102019.48;5110934;55;1143109;-63
2022/11/26 16:33:55;;;;;;;123.05;52.43;;;;;;;3.10;100.00;102017.57;5034258;56;1142955;-67
2022/11/26 16:39:01;;;;;;;139.40;59.40;;;;;;;3.21;100.00;102025.64;5107130;55;1143083;-66
2022/11/26 16:44:07;;;;;;;184.20;73.60;;;;;;;3.25;100.00;102024.65;5093528;55;1143002;-65
2022/11/26 16:49:12;;;;;;;178.27;77.00;;;;;;;3.22;100.00;102024.27;5074489;55;1143225;-67
2022/11/26 16:54:19;;;;;;;158.47;62.83;;;;;;;3.24;100.00;102022.92;5056732;56;1143016;-66
2022/11/26 16:59:27;;;;;;;146.63;64.50;;;;;;;3.26;100.00;102023.75;5056529;56;1142974;-68
2022/11/26 17:04:33;;;;;;;155.67;65.20;;;;;;;3.22;100.00;102018.17;5104194;55;1142994;-66
2022/11/26 17:09:39;;;;;;;177.30;91.97;;;;;;;3.27;100.00;102028.95;5074802;56;1145152;-66
2022/11/26 17:14:46;;;;;;;147.43;66.33;;;;;;;3.33;100.00;102017.05;5098077;55;1143056;-65
2022/11/26 17:19:52;;;;;;;245.60;109.27;;;;;;;3.36;100.00;102016.13;5073495;55;1143219;-67
2022/11/26 17:24:57;;;;;;;144.13;62.47;;;;;;;3.34;100.00;102020.53;5089835;55;1145125;-64
2022/11/26 17:30:05;;;;;;;135.20;57.05;;;;;;;3.23;100.00;102013.36;5095088;55;1143080;-67
2022/11/26 17:35:11;;;;;;;152.50;65.67;;;;;;;3.11;100.00;102014.52;5092321;55;1143226;-64
2022/11/26 17:40:22;;;;;;;172.73;77.07;;;;;;;3.05;100.00;102018.59;5098059;55;1145283;-65
2022/11/26 17:45:28;;;;;;;114.23;55.27;;;;;;;2.98;100.00;102023.53;5097657;55;1143202;-67
2022/11/26 17:50:35;;;;;;;115.47;55.50;;;;;;;2.89;100.00;102030.27;5112900;55;1143226;-64
2022/11/26 17:55:40;;;;;;;92.83;46.13;;;;;;;2.86;100.00;102027.72;5081302;55;1143127;-68
2022/11/26 18:00:46;;;;;;;83.60;36.70;;;;;;;2.91;100.00;102032.38;5082632;55;1143160;-67
2022/11/26 18:05:52;;;;;;;83.47;37.00;;;;;;;2.92;100.00;102032.34;5110095;55;1143397;-68
2022/11/26 18:10:57;;;;;;;93.30;40.15;;;;;;;2.95;100.00;102034.91;5072670;55;1143019;-64
2022/11/26 18:16:03;;;;;;;84.70;36.85;;;;;;;2.96;100.00;102039.69;5057747;56;1141098;-64
2022/11/26 18:21:09;;;;;;;78.93;35.10;;;;;;;2.89;100.00;102036.81;5105378;55;1251904;-66
2022/11/26 18:26:19;;;;;;;108.27;47.80;;;;;;;2.85;100.00;102040.37;5119295;55;1140790;-67
2022/11/26 18:31:25;;;;;;;95.57;45.13;;;;;;;2.83;100.00;102045.62;5071670;55;1142950;-64
2022/11/26 18:36:30;;;;;;;89.53;38.93;;;;;;;2.84;100.00;102051.27;5017314;56;1142934;-65
2022/11/26 18:41:37;;;;;;;70.93;32.33;;;;;;;2.91;100.00;102048.92;4982673;57;1142909;-63
2022/11/26 18:46:43;;;;;;;75.63;31.50;;;;;;;2.90;100.00;102057.69;5037942;56;1140907;-68
2022/11/26 18:51:49;;;;;;;90.70;37.33;;;;;;;2.85;100.00;102066.50;5000904;56;1198391;-63
2022/11/26 18:56:54;;;;;;;78.47;33.58;;;;;;;2.77;100.00;102058.80;4957120;56;1141041;-66
2022/11/26 19:02:00;;;;;;;76.15;34.20;;;;;;;2.78;100.00;102065.30;4956438;56;1140848;-65
2022/11/26 19:07:06;;;;;;;83.47;39.73;;;;;;;2.85;100.00;102061.27;5034900;56;1142967;-64
2022/11/26 19:12:13;;;;;;;94.83;41.53;;;;;;;3.01;100.00;102061.36;5098433;56;1140739;-67
2022/11/26 19:17:18;;;;;;;98.90;42.17;;;;;;;3.09;100.00;102061.59;5037146;57;1140826;-66
2022/11/26 19:22:24;;;;;;;92.10;41.03;;;;;;;3.05;100.00;102056.05;5037447;57;1140801;-66
2022/11/26 19:27:29;;;;;;;98.03;43.97;;;;;;;3.00;100.00;102060.50;5037278;57;1141007;-67
2022/11/26 19:32:35;;;;;;;90.70;44.50;;;;;;;2.96;100.00;102054.05;5035326;57;1141112;-64
2022/11/26 19:37:41;;;;;;;419.00;144.40;;;;;;;2.97;100.00;102059.25;5036612;56;1140955;-65
2022/11/26 19:42:47;;;;;;;443.00;171.20;;;;;;;3.02;100.00;102060.47;5036082;56;1144933;-63
2022/11/26 19:47:52;;;;;;;234.97;88.17;;;;;;;3.05;100.00;102070.42;5036602;57;1147178;-65
2022/11/26 19:52:58;;;;;;;108.40;46.20;;;;;;;3.17;100.00;102081.05;5025475;56;1143068;-66
2022/11/26 19:58:04;;;;;;;80.80;37.08;;;;;;;3.16;100.00;102081.49;5036854;56;1143025;-65
2022/11/26 20:03:11;;;;;;;85.07;40.00;;;;;;;3.07;100.00;102083.42;4969230;58;1140894;-68
2022/11/26 20:08:17;;;;;;;166.13;60.63;;;;;;;2.99;100.00;102080.99;5037369;57;1141006;-67
2022/11/26 20:13:23;;;;;;;284.67;114.30;;;;;;;3.02;100.00;102086.61;5079591;56;1143118;-66
2022/11/26 20:18:28;;;;;;;257.70;103.33;;;;;;;3.05;100.00;102086.10;5120485;56;1145206;-64
2022/11/26 20:23:34;;;;;;;224.37;91.40;;;;;;;3.08;100.00;102082.09;5122326;55;1145575;-64
2022/11/26 20:28:39;;;;;;;164.90;65.80;;;;;;;3.10;100.00;102079.45;5172490;56;1145166;-65
2022/11/26 20:33:46;;;;;;;118.33;47.40;;;;;;;3.11;100.00;102084.64;5120704;56;1145118;-68
2022/11/26 20:38:57;;;;;;;173.30;70.78;;;;;;;3.12;100.00;102082.45;5101828;56;1143035;-65
2022/11/26 20:44:03;;;;;;;94.37;40.27;;;;;;;3.03;100.00;102083.97;5077798;56;1143079;-63
2022/11/26 20:49:14;;;;;;;102.57;39.97;;;;;;;2.92;100.00;102087.23;5079374;56;1141155;-65
2022/11/26 20:54:16;;;;;;;82.23;37.00;;;;;;;2.84;100.00;102091.77;5056697;56;1143237;-64
2022/11/26 20:59:22;;;;;;;83.70;35.70;;;;;;;2.78;100.00;102087.96;5057288;56;1140963;-64
2022/11/26 21:04:28;;;;;;;76.77;33.37;;;;;;;2.74;100.00;102095.47;5083921;56;1140976;-65
2022/11/26 21:09:34;;;;;;;97.73;39.83;;;;;;;2.74;100.00;102096.33;5119364;56;1141142;-64
2022/11/26 21:14:39;;;;;;;77.00;33.90;;;;;;;2.75;100.00;102091.97;5119371;56;1140950;-63
2022/11/26 21:19:45;;;;;;;73.25;33.60;;;;;;;2.79;100.00;102094.91;5114776;56;1143106;-64
2022/11/26 21:24:50;;;;;;;80.53;36.03;;;;;;;2.86;100.00;102084.76;5118976;56;1143173;-66
2022/11/26 21:29:56;;;;;;;140.52;65.67;;;;;;;2.93;100.00;102086.34;5118943;56;1143167;-68
2022/11/26 21:35:01;;;;;;;87.27;41.53;;;;;;;2.99;100.00;102078.83;5121468;55;1142998;-67
2022/11/26 21:40:09;;;;;;;90.33;39.73;;;;;;;2.98;100.00;102081.02;5057512;56;1140896;-64
2022/11/26 21:45:15;;;;;;;100.80;37.60;;;;;;;2.97;100.00;102094.53;5099446;56;1140843;-65
2022/11/26 21:50:21;;;;;;;68.97;32.07;;;;;;;2.96;100.00;102101.95;5120459;55;1143293;-65
2022/11/26 21:55:26;;;;;;;137.63;56.03;;;;;;;2.92;100.00;102102.91;5117873;55;1141157;-67
2022/11/26 22:00:32;;;;;;;173.30;74.77;;;;;;;2.92;100.00;102112.05;5118349;55;1143212;-65
2022/11/26 22:05:40;;;;;;;111.50;51.10;;;;;;;2.98;100.00;102109.77;5077669;56;1145041;-67
2022/11/26 22:10:45;;;;;;;131.23;58.13;;;;;;;3.10;100.00;102109.50;5056790;56;1145125;-65
2022/11/26 22:15:51;;;;;;;133.73;52.10;;;;;;;3.23;100.00;102116.19;5057083;56;1143247;-67
2022/11/26 22:20:56;;;;;;;165.93;62.50;;;;;;;3.24;100.00;102111.81;5101960;56;1143217;-62
2022/11/26 22:26:02;;;;;;;181.57;65.23;;;;;;;3.21;100.00;102110.61;4982977;56;1142989;-68
2022/11/26 22:31:15;;;;;;;148.47;53.85;;;;;;;3.24;100.00;102104.84;4982379;57;1143260;-67
2022/11/26 22:36:21;;;;;;;114.33;45.03;;;;;;;3.29;100.00;102102.13;4982065;57;1142900;-63
2022/11/26 22:41:27;;;;;;;114.37;43.17;;;;;;;3.25;100.00;102103.09;4968791;57;1145298;-66
2022/11/26 22:46:33;;;;;;;132.20;54.20;;;;;;;3.30;100.00;102113.01;4982356;57;1145117;-64
2022/11/26 22:51:40;;;;;;;141.10;56.07;;;;;;;3.34;100.00;102105.07;4986895;57;1143186;-67
2022/11/26 22:56:46;;;;;;;149.70;55.20;;;;;;;3.42;100.00;102098.34;5036783;57;1143099;-64